Time;durP1;ratioP1;P1;durP2;ratioP2;P2;SDS_P1;SDS_P2;PMS_P1;PMS_P2;Temp;Humidity;BMP_temperature;BMP_pressure;BME280_temperature;BME280_humidity;BME280_pressure;Samples;Min_cycle;Max_cycle;Signal;HPM_P1;HPM_P2
2021/12/12 00:02:09;;;;;;;;;;;128.70;2252.80;;;;;;5034527;28;19905;-75
2021/12/12 00:04:37;;;;;;;;;;;128.60;2252.80;;;;;;5018121;28;19905;-82
2021/12/12 00:07:05;;;;;;;;;;;128.40;2252.80;;;;;;5034877;28;19945;-74
2021/12/12 00:09:33;;;;;;;;;;;128.70;2252.80;;;;;;5017995;28;19911;-81
2021/12/12 00:11:59;;;;;;;;;;;128.50;2252.80;;;;;;5034677;28;20015;-75
2021/12/12 00:14:27;;;;;;;;;;;128.50;2252.80;;;;;;5017853;28;20385;-75
2021/12/12 00:16:54;;;;;;;;;;;128.50;2252.80;;;;;;5034319;28;19915;-78
2021/12/12 00:19:20;;;;;;;;;;;128.40;2252.80;;;;;;5076526;28;19923;-75
2021/12/12 00:21:46;;;;;;;;;;;128.30;2252.80;;;;;;5083724;28;19904;-75
2021/12/12 00:24:12;;;;;;;;;;;128.30;2252.80;;;;;;5077325;28;20362;-74
2021/12/12 00:26:39;;;;;;;;;;;128.30;2252.80;;;;;;5075043;28;19908;-82
2021/12/12 00:29:06;;;;;;;;;;;128.40;2252.80;;;;;;5075773;28;19904;-74
2021/12/12 00:31:31;;;;;;;;;;;128.40;2252.80;;;;;;5075197;28;19994;-74
2021/12/12 00:33:58;;;;;;;;;;;128.30;2252.80;;;;;;5076210;28;20393;-74
2021/12/12 00:36:26;;;;;;;;;;;128.40;2252.80;;;;;;5076089;28;19904;-74
2021/12/12 00:38:56;;;;;;;;;;;128.40;2252.80;;;;;;5076451;28;19904;-74
2021/12/12 00:41:42;;;;;;;;;;;128.40;2252.80;;;;;;5075958;28;19993;-81
2021/12/12 00:44:08;;;;;;;;;;;128.30;2252.80;;;;;;5074829;28;20475;-80
2021/12/12 00:46:34;;;;;;;;;;;128.40;2252.80;;;;;;5076044;28;19943;-74
2021/12/12 00:48:59;;;;;;;;;;;128.40;2252.80;;;;;;5076022;28;19919;-74
2021/12/12 00:51:31;;;;;;;;;;;128.30;2252.80;;;;;;5076183;28;19916;-75
2021/12/12 00:53:57;;;;;;;;;;;128.30;2252.80;;;;;;5075799;28;20419;-83
2021/12/12 00:56:22;;;;;;;;;;;128.30;2252.80;;;;;;5076087;28;19904;-74
2021/12/12 00:58:48;;;;;;;;;;;128.30;2252.80;;;;;;5075858;28;19962;-74
2021/12/12 01:01:17;;;;;;;;;;;128.40;2252.80;;;;;;5075713;28;19918;-75
2021/12/12 01:03:54;;;;;;;;;;;128.20;2252.80;;;;;;5076115;28;19904;-74
2021/12/12 01:06:21;;;;;;;;;;;128.20;2252.80;;;;;;5076232;28;20395;-79
2021/12/12 01:08:47;;;;;;;;;;;128.20;2252.80;;;;;;5076641;28;19904;-82
2021/12/12 01:11:16;;;;;;;;;;;128.20;2252.80;;;;;;5074324;28;19913;-75
2021/12/12 01:13:42;;;;;;;;;;;128.10;2252.80;;;;;;5075232;28;19968;-78
2021/12/12 01:16:16;;;;;;;;;;;128.10;2252.80;;;;;;5076066;28;19911;-74
2021/12/12 01:18:44;;;;;;;;;;;128.10;2252.80;;;;;;5075918;28;19970;-81
2021/12/12 01:21:14;;;;;;;;;;;128.10;2252.80;;;;;;5076450;28;19954;-75
2021/12/12 01:23:45;;;;;;;;;;;128.10;2252.80;;;;;;5075644;28;20394;-75
2021/12/12 01:26:11;;;;;;;;;;;128.00;2252.80;;;;;;5076191;28;19904;-83
2021/12/12 01:28:38;;;;;;;;;;;128.00;2252.80;;;;;;5075420;28;19905;-74
2021/12/12 01:31:05;;;;;;;;;;;128.00;2252.80;;;;;;5075998;28;19947;-75
2021/12/12 01:33:36;;;;;;;;;;;128.00;2252.80;;;;;;5076436;28;19919;-75
2021/12/12 01:36:12;;;;;;;;;;;103.30;2227.20;;;;;;5074261;28;19911;-74
2021/12/12 01:38:54;;;;;;;;;;;103.30;2227.20;;;;;;5075718;28;19905;-76
2021/12/12 01:41:25;;;;;;;;;;;103.30;2227.20;;;;;;5073812;28;19995;-74
2021/12/12 01:43:53;;;;;;;;;;;103.30;2227.20;;;;;;5073718;28;20338;-74
2021/12/12 01:46:21;;;;;;;;;;;103.20;2227.20;;;;;;5074848;28;19909;-75
2021/12/12 01:48:49;;;;;;;;;;;103.30;2227.20;;;;;;5073750;28;20003;-82
2021/12/12 01:51:15;;;;;;;;;;;103.30;2227.20;;;;;;5075453;28;19912;-82
2021/12/12 01:53:43;;;;;;;;;;;103.30;2227.20;;;;;;5074785;28;20277;-74
2021/12/12 01:56:13;;;;;;;;;;;103.20;2227.20;;;;;;5075115;28;19908;-75
2021/12/12 01:58:40;;;;;;;;;;;103.20;2227.20;;;;;;5074916;28;19954;-78
2021/12/12 02:01:08;;;;;;;;;;;103.20;2227.20;;;;;;5075007;28;19911;-80
2021/12/12 02:03:36;;;;;;;;;;;103.10;2227.20;;;;;;5075240;28;19950;-81
2021/12/12 02:06:05;;;;;;;;;;;103.10;2227.20;;;;;;5074690;28;19958;-74
2021/12/12 02:08:31;;;;;;;;;;;103.10;2227.20;;;;;;5074453;28;19911;-74
2021/12/12 02:11:06;;;;;;;;;;;103.10;2227.20;;;;;;5073548;28;19912;-81
2021/12/12 02:13:36;;;;;;;;;;;103.00;2227.20;;;;;;5073160;28;19904;-74
2021/12/12 02:16:01;;;;;;;;;;;103.10;2227.20;;;;;;5075310;28;19935;-77
2021/12/12 02:18:32;;;;;;;;;;;103.10;2227.20;;;;;;5074346;28;19969;-81
2021/12/12 02:21:23;;;;;;;;;;;103.10;2227.20;;;;;;5075152;28;19916;-74
2021/12/12 02:37:32;;;;;;;;;;;103.00;2227.20;;;;;;5074397;28;20404;-74
2021/12/12 02:39:59;;;;;;;;;;;103.00;2227.20;;;;;;5073351;28;19904;-82
2021/12/12 02:42:25;;;;;;;;;;;103.20;2227.20;;;;;;5073416;28;19904;-75
2021/12/12 02:44:55;;;;;;;;;;;103.10;2227.20;;;;;;5072930;28;19998;-75
2021/12/12 02:47:31;;;;;;;;;;;103.10;2227.20;;;;;;5073612;28;19913;-74
2021/12/12 02:50:09;;;;;;;;;;;103.10;2227.20;;;;;;5073564;28;19975;-81
2021/12/12 02:52:34;;;;;;;;;;;103.20;2227.20;;;;;;5073884;28;19949;-75
2021/12/12 02:55:03;;;;;;;;;;;103.10;2227.20;;;;;;5073593;28;19908;-75
2021/12/12 02:57:28;;;;;;;;;;;103.10;2227.20;;;;;;5073751;28;19943;-82
2021/12/12 02:59:54;;;;;;;;;;;103.10;2227.20;;;;;;5073398;28;19951;-74
2021/12/12 03:02:23;;;;;;;;;;;103.10;2227.20;;;;;;5072620;28;19912;-81
2021/12/12 03:04:50;;;;;;;;;;;103.10;2227.20;;;;;;5073207;28;19912;-82
2021/12/12 03:07:15;;;;;;;;;;;103.00;2227.20;;;;;;5073683;28;19904;-74
2021/12/12 03:09:46;;;;;;;;;;;103.10;2227.20;;;;;;5073739;28;19908;-74
2021/12/12 03:12:15;;;;;;;;;;;103.10;2227.20;;;;;;5073141;28;19916;-82
2021/12/12 03:14:42;;;;;;;;;;;103.10;2227.20;;;;;;5072071;28;20260;-74
2021/12/12 03:17:12;;;;;;;;;;;103.10;2227.20;;;;;;5071497;28;19976;-81
2021/12/12 03:19:38;;;;;;;;;;;103.20;2227.20;;;;;;5072083;28;19931;-82
2021/12/12 03:22:05;;;;;;;;;;;103.10;2227.20;;;;;;5073012;28;19904;-74
2021/12/12 03:24:31;;;;;;;;;;;103.10;2227.20;;;;;;5071312;28;19995;-75
2021/12/12 03:26:58;;;;;;;;;;;103.10;2227.20;;;;;;5073013;28;19999;-80
2021/12/12 03:29:24;;;;;;;;;;;103.00;2227.20;;;;;;5072059;28;19904;-77
2021/12/12 03:31:53;;;;;;;;;;;103.00;2227.20;;;;;;5072063;28;19912;-79
2021/12/12 03:34:21;;;;;;;;;;;103.00;2227.20;;;;;;5074257;28;20273;-75
2021/12/12 03:36:47;;;;;;;;;;;103.00;2227.20;;;;;;5078737;28;19927;-82
2021/12/12 03:39:16;;;;;;;;;;;103.10;2227.20;;;;;;5079782;28;19908;-81
2021/12/12 03:41:41;;;;;;;;;;;103.10;2227.20;;;;;;5073416;28;19905;-74
2021/12/12 03:44:11;;;;;;;;;;;103.00;2227.20;;;;;;5071685;28;19904;-81
2021/12/12 03:46:37;;;;;;;;;;;103.00;2227.20;;;;;;5071903;28;20010;-80
2021/12/12 03:49:04;;;;;;;;;;;103.00;2227.20;;;;;;5073089;28;19926;-74
2021/12/12 03:51:30;;;;;;;;;;;103.00;2227.20;;;;;;5072745;28;19916;-75
2021/12/12 03:53:56;;;;;;;;;;;103.00;2227.20;;;;;;5073129;28;19905;-74
2021/12/12 03:56:22;;;;;;;;;;;103.00;2227.20;;;;;;5072309;28;20316;-81
2021/12/12 03:58:48;;;;;;;;;;;103.10;2227.20;;;;;;5071770;28;19905;-83
2021/12/12 04:01:18;;;;;;;;;;;103.00;2227.20;;;;;;5071706;28;20052;-82
2021/12/12 04:03:45;;;;;;;;;;;103.00;2227.20;;;;;;5072059;28;19908;-75
2021/12/12 04:06:12;;;;;;;;;;;103.00;2227.20;;;;;;5071834;28;19959;-74
2021/12/12 04:08:40;;;;;;;;;;;103.10;2227.20;;;;;;5072994;28;19970;-75
2021/12/12 04:11:11;;;;;;;;;;;103.00;2227.20;;;;;;5073887;28;19969;-74
2021/12/12 04:13:40;;;;;;;;;;;103.00;2227.20;;;;;;5072600;28;20331;-75
2021/12/12 04:16:06;;;;;;;;;;;103.00;2227.20;;;;;;5073174;28;19904;-82
2021/12/12 04:18:31;;;;;;;;;;;103.20;2227.20;;;;;;5071732;28;19923;-75
2021/12/12 04:20:57;;;;;;;;;;;103.00;2227.20;;;;;;5073245;28;20281;-76
2021/12/12 04:23:25;;;;;;;;;;;103.00;2227.20;;;;;;5073180;28;19947;-82
2021/12/12 04:25:51;;;;;;;;;;;103.00;2227.20;;;;;;5072306;28;19905;-74
2021/12/12 04:28:17;;;;;;;;;;;103.10;2227.20;;;;;;5073184;28;19912;-81
2021/12/12 04:30:43;;;;;;;;;;;103.10;2227.20;;;;;;5071206;28;19999;-74
2021/12/12 04:33:09;;;;;;;;;;;103.10;2227.20;;;;;;5072817;28;20372;-74
2021/12/12 04:35:34;;;;;;;;;;;103.10;2227.20;;;;;;5071894;28;19952;-82
2021/12/12 04:38:01;;;;;;;;;;;103.00;2227.20;;;;;;5076710;28;19904;-74
2021/12/12 04:40:29;;;;;;;;;;;103.10;2227.20;;;;;;5075102;28;19908;-75
2021/12/12 04:42:55;;;;;;;;;;;103.10;2227.20;;;;;;5074975;28;19991;-74
2021/12/12 04:45:39;;;;;;;;;;;103.00;2227.20;;;;;;5076442;28;20843;-75
2021/12/12 04:50:54;;;;;;;;;;;103.00;2227.20;;;;;;5076376;28;19924;-74
2021/12/12 04:53:32;;;;;;;;;;;103.00;2227.20;;;;;;5074799;28;19957;-74
2021/12/12 04:55:57;;;;;;;;;;;103.00;2227.20;;;;;;5074493;28;19958;-81
2021/12/12 04:58:31;;;;;;;;;;;103.10;2227.20;;;;;;5075202;28;19904;-74
2021/12/12 05:00:59;;;;;;;;;;;103.00;2227.20;;;;;;5074411;28;19910;-81
2021/12/12 05:03:27;;;;;;;;;;;103.00;2227.20;;;;;;5076274;28;19912;-81
2021/12/12 05:05:54;;;;;;;;;;;103.00;2227.20;;;;;;5074906;28;19904;-82
2021/12/12 05:08:26;;;;;;;;;;;103.00;2227.20;;;;;;5074324;28;19905;-76
2021/12/12 05:11:03;;;;;;;;;;;102.90;2227.20;;;;;;5074257;28;20027;-81
2021/12/12 05:13:52;;;;;;;;;;;102.80;2227.20;;;;;;5075179;28;19998;-74
2021/12/12 05:16:24;;;;;;;;;;;102.90;2227.20;;;;;;5033557;28;20417;-78
2021/12/12 05:18:52;;;;;;;;;;;102.90;2227.20;;;;;;5016992;28;19925;-75
2021/12/12 05:21:21;;;;;;;;;;;102.90;2227.20;;;;;;5033045;28;19944;-75
2021/12/12 05:23:48;;;;;;;;;;;102.90;2227.20;;;;;;5033525;28;19912;-75
2021/12/12 05:26:19;;;;;;;;;;;103.00;2227.20;;;;;;5033205;28;20322;-74
2021/12/12 05:28:58;;;;;;;;;;;103.00;2227.20;;;;;;5016531;28;19956;-74
2021/12/12 05:31:24;;;;;;;;;;;102.90;2227.20;;;;;;5016475;28;19921;-80
2021/12/12 05:33:51;;;;;;;;;;;102.90;2227.20;;;;;;5032896;28;19913;-82
2021/12/12 05:36:17;;;;;;;;;;;102.80;2227.20;;;;;;5033306;28;19910;-76
2021/12/12 05:38:42;;;;;;;;;;;102.90;2227.20;;;;;;5032918;28;20397;-74
2021/12/12 05:41:08;;;;;;;;;;;102.80;2227.20;;;;;;5032994;28;19967;-81
2021/12/12 05:43:37;;;;;;;;;;;102.90;2227.20;;;;;;5032936;28;20358;-75
2021/12/12 05:46:03;;;;;;;;;;;102.90;2227.20;;;;;;5033003;28;19905;-81
2021/12/12 05:48:29;;;;;;;;;;;102.80;2227.20;;;;;;5031766;28;20362;-75
2021/12/12 05:50:55;;;;;;;;;;;102.90;2227.20;;;;;;5033220;28;19929;-81
2021/12/12 05:53:21;;;;;;;;;;;102.90;2227.20;;;;;;5045226;28;19905;-75
2021/12/12 05:55:48;;;;;;;;;;;102.80;2227.20;;;;;;5074652;28;20365;-80
2021/12/12 05:58:15;;;;;;;;;;;102.80;2227.20;;;;;;5074751;28;19904;-74
2021/12/12 06:00:42;;;;;;;;;;;102.70;2227.20;;;;;;5073577;28;19909;-81
2021/12/12 06:03:09;;;;;;;;;;;102.70;2227.20;;;;;;5074694;28;19957;-79
2021/12/12 06:05:35;;;;;;;;;;;102.70;2227.20;;;;;;5073274;28;19904;-79
2021/12/12 06:08:01;;;;;;;;;;;102.70;2227.20;;;;;;5073481;28;20265;-78
2021/12/12 06:10:27;;;;;;;;;;;102.60;2227.20;;;;;;5074294;28;19916;-82
2021/12/12 06:12:53;;;;;;;;;;;102.60;2227.20;;;;;;5073326;28;19905;-74
2021/12/12 06:15:20;;;;;;;;;;;102.60;2227.20;;;;;;5072882;28;20358;-75
2021/12/12 06:17:46;;;;;;;;;;;102.60;2227.20;;;;;;5072613;28;19923;-75
2021/12/12 06:20:12;;;;;;;;;;;102.60;2227.20;;;;;;5073110;28;19908;-82
2021/12/12 06:22:38;;;;;;;;;;;102.50;2227.20;;;;;;5072865;28;19931;-76
2021/12/12 06:25:04;;;;;;;;;;;102.50;2227.20;;;;;;5074235;28;19912;-82
2021/12/12 06:27:30;;;;;;;;;;;102.50;2227.20;;;;;;5074018;28;19904;-75
2021/12/12 06:29:56;;;;;;;;;;;102.50;2227.20;;;;;;5073027;28;19927;-74
2021/12/12 06:32:22;;;;;;;;;;;102.50;2227.20;;;;;;5073044;28;19908;-74
2021/12/12 06:34:48;;;;;;;;;;;102.50;2227.20;;;;;;5072921;28;19904;-78
2021/12/12 06:37:14;;;;;;;;;;;102.40;2227.20;;;;;;5074198;28;19958;-76
2021/12/12 06:39:40;;;;;;;;;;;102.40;2227.20;;;;;;5074590;28;20305;-74
2021/12/12 06:42:07;;;;;;;;;;;102.40;2227.20;;;;;;5073569;28;19905;-77
2021/12/12 06:44:36;;;;;;;;;;;77.70;2227.20;;;;;;5073611;28;20350;-81
2021/12/12 06:47:02;;;;;;;;;;;77.70;2227.20;;;;;;5073791;28;19909;-74
2021/12/12 06:49:28;;;;;;;;;;;77.70;2227.20;;;;;;5073473;28;19908;-82
2021/12/12 06:51:57;;;;;;;;;;;77.60;2227.20;;;;;;5073694;28;19912;-74
2021/12/12 06:54:24;;;;;;;;;;;77.60;2227.20;;;;;;5074972;28;19905;-81
2021/12/12 06:56:51;;;;;;;;;;;77.50;2227.20;;;;;;5077640;28;19912;-74
2021/12/12 06:59:17;;;;;;;;;;;77.50;2227.20;;;;;;5077240;28;20353;-83
2021/12/12 07:01:43;;;;;;;;;;;77.40;2227.20;;;;;;5072833;28;19911;-82
2021/12/12 07:04:09;;;;;;;;;;;77.40;2227.20;;;;;;5072357;28;19909;-83
2021/12/12 07:06:35;;;;;;;;;;;77.30;2227.20;;;;;;5073819;28;19905;-76
2021/12/12 07:09:03;;;;;;;;;;;77.40;2227.20;;;;;;5074309;28;19957;-75
2021/12/12 07:11:29;;;;;;;;;;;77.30;2227.20;;;;;;5072557;28;20385;-75
2021/12/12 07:13:56;;;;;;;;;;;77.20;2227.20;;;;;;5073392;28;19905;-74
2021/12/12 07:16:21;;;;;;;;;;;77.20;2227.20;;;;;;5073358;28;19995;-74
2021/12/12 07:18:48;;;;;;;;;;;77.30;2227.20;;;;;;5075019;28;20010;-80
2021/12/12 07:21:15;;;;;;;;;;;77.20;2227.20;;;;;;5080600;28;19987;-80
2021/12/12 07:23:41;;;;;;;;;;;77.20;2227.20;;;;;;5082546;28;20002;-75
2021/12/12 07:26:08;;;;;;;;;;;77.20;2227.20;;;;;;5081311;28;19904;-77
2021/12/12 07:28:34;;;;;;;;;;;77.00;2227.20;;;;;;5092933;28;19947;-81
2021/12/12 07:31:07;;;;;;;;;;;77.00;2227.20;;;;;;5093264;28;19919;-75
2021/12/12 07:33:33;;;;;;;;;;;77.00;2227.20;;;;;;5093215;28;20368;-81
2021/12/12 07:36:00;;;;;;;;;;;77.10;2227.20;;;;;;5093247;28;20374;-74
2021/12/12 07:38:27;;;;;;;;;;;76.90;2227.20;;;;;;5093198;28;19911;-80
2021/12/12 07:40:53;;;;;;;;;;;76.80;2227.20;;;;;;5093364;28;19908;-80
2021/12/12 07:43:18;;;;;;;;;;;52.10;2227.20;;;;;;5093152;28;19908;-74
2021/12/12 07:45:44;;;;;;;;;;;76.80;2227.20;;;;;;5091771;28;19908;-80
2021/12/12 07:48:11;;;;;;;;;;;52.10;2227.20;;;;;;5072504;28;19912;-76
2021/12/12 07:50:37;;;;;;;;;;;52.10;2227.20;;;;;;5080580;28;20452;-74
2021/12/12 07:53:04;;;;;;;;;;;52.00;2227.20;;;;;;5092883;28;20006;-82
2021/12/12 07:55:29;;;;;;;;;;;52.00;2227.20;;;;;;5081901;28;19922;-78
2021/12/12 07:57:55;;;;;;;;;;;52.00;2227.20;;;;;;5082532;28;20305;-77
2021/12/12 08:00:22;;;;;;;;;;;51.90;1868.80;;;;;;5072495;28;19915;-76
2021/12/12 08:02:50;;;;;;;;;;;51.90;2227.20;;;;;;5071552;28;19950;-79
2021/12/12 08:05:16;;;;;;;;;;;52.10;2227.20;;;;;;5071253;28;19904;-73
2021/12/12 08:07:43;;;;;;;;;;;52.10;2227.20;;;;;;5072691;28;19996;-78
2021/12/12 08:10:10;;;;;;;;;;;52.10;2227.20;;;;;;5072563;28;20002;-78
2021/12/12 08:12:35;;;;;;;;;;;52.10;2227.20;;;;;;5075615;28;19991;-79
2021/12/12 08:15:05;;;;;;;;;;;77.60;2227.20;;;;;;5075406;28;19951;-78
2021/12/12 08:17:31;;;;;;;;;;;52.10;2227.20;;;;;;5076208;28;19912;-77
2021/12/12 08:19:58;;;;;;;;;;;52.00;2227.20;;;;;;5076477;28;19915;-79
2021/12/12 08:22:24;;;;;;;;;;;52.10;2227.20;;;;;;5076119;28;19904;-78
2021/12/12 08:24:50;;;;;;;;;;;52.00;2227.20;;;;;;5087425;28;19951;-76
2021/12/12 08:27:15;;;;;;;;;;;52.00;2227.20;;;;;;5096578;28;20319;-77
2021/12/12 08:29:42;;;;;;;;;;;51.90;2227.20;;;;;;5091773;28;19915;-74
2021/12/12 08:32:09;;;;;;;;;;;51.90;2227.20;;;;;;5074901;28;19913;-74
2021/12/12 08:34:35;;;;;;;;;;;51.90;2227.20;;;;;;5075125;28;19911;-79
2021/12/12 08:37:01;;;;;;;;;;;51.90;2048.00;;;;;;5074852;28;19905;-74
2021/12/12 08:39:28;;;;;;;;;;;52.00;2227.20;;;;;;5076141;28;20276;-79
2021/12/12 08:41:54;;;;;;;;;;;51.90;2227.20;;;;;;5076011;28;19957;-79
2021/12/12 08:44:20;;;;;;;;;;;51.90;2227.20;;;;;;5075942;28;19908;-75
2021/12/12 08:46:47;;;;;;;;;;;51.90;2227.20;;;;;;5074753;28;19908;-79
2021/12/12 08:49:14;;;;;;;;;;;52.00;2227.20;;;;;;5075829;28;19909;-79
2021/12/12 08:51:42;;;;;;;;;;;51.90;2227.20;;;;;;5074767;28;19912;-75
2021/12/12 08:54:15;;;;;;;;;;;52.00;2227.20;;;;;;5075572;28;19950;-77
2021/12/12 08:56:42;;;;;;;;;;;51.90;2227.20;;;;;;5075916;28;20281;-75
2021/12/12 08:59:19;;;;;;;;;;;52.00;2227.20;;;;;;5074325;28;19904;-77
2021/12/12 09:01:45;;;;;;;;;;;52.10;2227.20;;;;;;5075585;28;20306;-77
2021/12/12 09:04:11;;;;;;;;;;;76.80;2227.20;;;;;;5075807;28;19995;-75
2021/12/12 09:06:48;;;;;;;;;;;52.10;2227.20;;;;;;5075520;28;20004;-75
2021/12/12 09:09:19;;;;;;;;;;;52.10;2227.20;;;;;;5075577;28;19905;-78
2021/12/12 09:12:00;;;;;;;;;;;76.80;2227.20;;;;;;5079701;28;19916;-77
2021/12/12 09:14:37;;;;;;;;;;;52.00;2227.20;;;;;;5083757;28;19911;-80
2021/12/12 09:17:23;;;;;;;;;;;52.00;2227.20;;;;;;5078959;28;19939;-80
2021/12/12 09:19:58;;;;;;;;;;;52.00;2227.20;;;;;;5043075;28;20012;-75
2021/12/12 09:22:40;;;;;;;;;;;52.00;2227.20;;;;;;5040145;28;19916;-78
2021/12/12 09:25:23;;;;;;;;;;;52.10;2227.20;;;;;;5033105;28;19904;-82
2021/12/12 09:27:53;;;;;;;;;;;76.80;2227.20;;;;;;5033311;28;19928;-76
2021/12/12 09:30:25;;;;;;;;;;;52.10;2227.20;;;;;;5033051;28;19909;-75
2021/12/12 09:33:00;;;;;;;;;;;52.10;2227.20;;;;;;5016673;28;19967;-76
2021/12/12 09:35:29;;;;;;;;;;;52.10;2227.20;;;;;;5032926;28;19905;-77
2021/12/12 09:37:58;;;;;;;;;;;76.80;2227.20;;;;;;5032751;28;19909;-77
2021/12/12 09:40:35;;;;;;;;;;;52.10;2227.20;;;;;;5033169;28;19905;-76
2021/12/12 09:43:16;;;;;;;;;;;52.10;2227.20;;;;;;5041057;28;19917;-76
2021/12/12 09:46:00;;;;;;;;;;;52.10;2227.20;;;;;;5043099;28;20425;-77
2021/12/12 09:51:44;;;;;;;;;;;76.80;2227.20;;;;;;5052834;28;19923;-75
2021/12/12 09:54:46;;;;;;;;;;;76.80;2227.20;;;;;;5035765;28;19908;-75
2021/12/12 09:57:19;;;;;;;;;;;76.90;2227.20;;;;;;5049389;28;19943;-76
2021/12/12 10:00:03;;;;;;;;;;;52.10;2227.20;;;;;;5072572;28;20374;-74
2021/12/12 10:02:35;;;;;;;;;;;76.80;2227.20;;;;;;5072636;28;19905;-74
2021/12/12 10:05:00;;;;;;;;;;;76.80;2227.20;;;;;;5068299;28;19916;-74
2021/12/12 10:07:28;;;;;;;;;;;76.90;2227.20;;;;;;5061994;28;19905;-76
2021/12/12 10:09:58;;;;;;;;;;;76.90;2227.20;;;;;;5064128;28;20007;-76
2021/12/12 10:12:30;;;;;;;;;;;76.80;2227.20;;;;;;5076339;28;19916;-74
2021/12/12 10:14:58;;;;;;;;;;;52.10;2227.20;;;;;;5074099;28;19908;-74
2021/12/12 10:17:24;;;;;;;;;;;76.80;2227.20;;;;;;5071369;28;20004;-77
2021/12/12 10:20:01;;;;;;;;;;;76.80;2227.20;;;;;;5071892;28;19940;-77
2021/12/12 10:22:26;;;;;;;;;;;76.80;2227.20;;;;;;5071768;28;19955;-74
2021/12/12 10:25:00;;;;;;;;;;;76.90;2227.20;;;;;;5071890;28;20482;-75
2021/12/12 10:27:34;;;;;;;;;;;76.80;2227.20;;;;;;5072037;28;19909;-74
2021/12/12 10:30:06;;;;;;;;;;;76.80;2227.20;;;;;;5072047;28;19953;-77
2021/12/12 10:32:40;;;;;;;;;;;76.90;2227.20;;;;;;5094314;28;19919;-75
2021/12/12 10:35:09;;;;;;;;;;;76.80;2227.20;;;;;;5093723;28;19904;-74
2021/12/12 10:38:04;;;;;;;;;;;76.80;2227.20;;;;;;5094169;28;19911;-78
2021/12/12 10:40:29;;;;;;;;;;;76.80;2227.20;;;;;;5015308;28;20066;-77
2021/12/12 10:42:57;;;;;;;;;;;76.80;2227.20;;;;;;5031753;28;19948;-78
2021/12/12 10:45:23;;;;;;;;;;;76.90;2227.20;;;;;;5031938;28;20285;-76
2021/12/12 10:47:54;;;;;;;;;;;76.90;2227.20;;;;;;5031582;28;19905;-77
2021/12/12 10:50:25;;;;;;;;;;;76.90;2227.20;;;;;;5014629;28;20416;-75
2021/12/12 10:53:00;;;;;;;;;;;76.90;2227.20;;;;;;5032074;28;20282;-77
2021/12/12 10:55:45;;;;;;;;;;;76.80;2227.20;;;;;;5014686;28;19920;-75
2021/12/12 10:58:26;;;;;;;;;;;76.90;2227.20;;;;;;5031314;28;19905;-76
2021/12/12 11:00:53;;;;;;;;;;;76.90;2227.20;;;;;;5031568;28;20402;-79
2021/12/12 11:03:21;;;;;;;;;;;76.80;2227.20;;;;;;5014771;28;19909;-74
2021/12/12 11:05:51;;;;;;;;;;;77.00;2227.20;;;;;;5015032;28;19905;-74
2021/12/12 11:08:22;;;;;;;;;;;77.00;2227.20;;;;;;5014720;28;19905;-77
2021/12/12 11:10:49;;;;;;;;;;;76.90;2227.20;;;;;;5031334;28;19913;-79
2021/12/12 11:13:17;;;;;;;;;;;77.00;2227.20;;;;;;5015080;28;19905;-79
2021/12/12 11:15:47;;;;;;;;;;;77.10;2227.20;;;;;;5032719;28;19912;-74
2021/12/12 11:18:12;;;;;;;;;;;77.20;2227.20;;;;;;5093290;28;19985;-78
2021/12/12 11:20:41;;;;;;;;;;;77.50;2227.20;;;;;;5087059;28;20374;-73
2021/12/12 11:23:19;;;;;;;;;;;77.30;2227.20;;;;;;5083436;28;19911;-74
2021/12/12 11:25:56;;;;;;;;;;;77.40;2227.20;;;;;;5075848;28;19931;-76
2021/12/12 11:28:28;;;;;;;;;;;77.40;2227.20;;;;;;5081621;28;19904;-75
2021/12/12 11:30:58;;;;;;;;;;;77.50;2227.20;;;;;;5091730;28;19908;-75
2021/12/12 11:33:26;;;;;;;;;;;77.40;2227.20;;;;;;5089616;28;19962;-78
2021/12/12 11:35:53;;;;;;;;;;;77.40;2227.20;;;;;;5079994;28;19911;-77
2021/12/12 11:38:28;;;;;;;;;;;77.40;2227.20;;;;;;5079825;28;19904;-77
2021/12/12 11:40:58;;;;;;;;;;;77.30;2227.20;;;;;;5079997;28;19904;-75
2021/12/12 11:43:35;;;;;;;;;;;77.20;2227.20;;;;;;5083920;28;19904;-76
2021/12/12 11:46:08;;;;;;;;;;;77.30;2227.20;;;;;;5070521;28;19904;-74
2021/12/12 11:48:34;;;;;;;;;;;77.40;2227.20;;;;;;5072793;28;20362;-77
2021/12/12 11:51:06;;;;;;;;;;;77.60;2227.20;;;;;;5072801;28;20086;-78
2021/12/12 11:53:31;;;;;;;;;;;77.60;2227.20;;;;;;5072922;28;19995;-74
2021/12/12 11:56:00;;;;;;;;;;;77.40;2227.20;;;;;;5072843;28;20326;-78
2021/12/12 11:58:25;;;;;;;;;;;77.40;2227.20;;;;;;5071176;28;20403;-74
2021/12/12 12:01:03;;;;;;;;;;;77.30;2227.20;;;;;;5071537;28;19999;-74
2021/12/12 12:03:35;;;;;;;;;;;77.60;2227.20;;;;;;5072402;28;20388;-77
2021/12/12 12:06:06;;;;;;;;;;;77.70;2227.20;;;;;;5072673;28;20354;-75
2021/12/12 12:08:40;;;;;;;;;;;77.70;2227.20;;;;;;5072650;28;19948;-78
2021/12/12 12:11:17;;;;;;;;;;;77.70;2227.20;;;;;;5072503;28;20007;-79
2021/12/12 12:14:01;;;;;;;;;;;77.70;2227.20;;;;;;5071149;28;19905;-75
2021/12/12 12:16:45;;;;;;;;;;;77.60;2227.20;;;;;;5071114;28;20346;-75
2021/12/12 12:19:32;;;;;;;;;;;102.40;2227.20;;;;;;5072253;28;19920;-74
2021/12/12 12:22:04;;;;;;;;;;;77.60;2227.20;;;;;;5072155;28;19909;-77
2021/12/12 12:24:40;;;;;;;;;;;77.70;2227.20;;;;;;5072433;28;19912;-76
2021/12/12 12:27:10;;;;;;;;;;;77.70;2227.20;;;;;;5072356;28;20032;-77
2021/12/12 12:29:59;;;;;;;;;;;77.70;2227.20;;;;;;5071145;28;20352;-75
2021/12/12 12:32:30;;;;;;;;;;;102.50;2227.20;;;;;;5030307;28;19913;-75
2021/12/12 12:35:14;;;;;;;;;;;77.70;2227.20;;;;;;5030446;28;19905;-77
2021/12/12 12:37:58;;;;;;;;;;;77.50;2227.20;;;;;;5030124;28;19951;-74
2021/12/12 12:40:41;;;;;;;;;;;77.70;2227.20;;;;;;5032983;28;19905;-76
2021/12/12 12:43:30;;;;;;;;;;;77.40;2227.20;;;;;;5038421;28;20165;-76
2021/12/12 12:46:14;;;;;;;;;;;77.70;2227.20;;;;;;4999594;28;19913;-74
2021/12/12 12:48:45;;;;;;;;;;;102.40;2227.20;;;;;;4999642;28;20011;-74
2021/12/12 12:51:11;;;;;;;;;;;102.50;2227.20;;;;;;4998592;28;19921;-76
2021/12/12 12:53:38;;;;;;;;;;;102.40;2227.20;;;;;;5000173;28;19913;-76
2021/12/12 12:56:33;;;;;;;;;;;102.40;2227.20;;;;;;4999175;28;19905;-76
2021/12/12 12:59:07;;;;;;;;;;;102.50;2227.20;;;;;;4935198;29;19906;-77
2021/12/12 13:01:37;;;;;;;;;;;77.70;2227.20;;;;;;4934842;29;19918;-76
2021/12/12 13:04:08;;;;;;;;;;;77.70;2227.20;;;;;;4934726;29;19907;-76
2021/12/12 13:06:52;;;;;;;;;;;102.40;2227.20;;;;;;4935015;29;19907;-76
2021/12/12 13:09:27;;;;;;;;;;;77.70;2227.20;;;;;;4943221;29;19961;-74
2021/12/12 13:12:02;;;;;;;;;;;77.60;2227.20;;;;;;4953891;29;19963;-76
2021/12/12 13:14:27;;;;;;;;;;;77.70;2227.20;;;;;;4937835;29;19906;-75
2021/12/12 13:17:09;;;;;;;;;;;102.50;2227.20;;;;;;4953499;28;19914;-77
2021/12/12 13:19:58;;;;;;;;;;;77.70;2227.20;;;;;;4953344;29;19933;-74
2021/12/12 13:22:32;;;;;;;;;;;102.40;2227.20;;;;;;4960502;28;19916;-77
2021/12/12 13:25:14;;;;;;;;;;;102.40;2227.20;;;;;;4999079;28;19912;-77
2021/12/12 13:30:28;;;;;;;;;;;102.50;2227.20;;;;;;4998628;28;19960;-76
2021/12/12 13:33:04;;;;;;;;;;;102.50;2227.20;;;;;;5000422;28;19914;-77
2021/12/12 13:35:32;;;;;;;;;;;102.50;2227.20;;;;;;5011442;28;19913;-77
2021/12/12 13:38:15;;;;;;;;;;;102.50;2227.20;;;;;;5019297;28;19919;-77
2021/12/12 13:40:58;;;;;;;;;;;102.50;2227.20;;;;;;5002016;28;20355;-76
2021/12/12 13:43:33;;;;;;;;;;;102.50;2227.20;;;;;;5020208;28;20395;-76
2021/12/12 13:46:14;;;;;;;;;;;102.50;2227.20;;;;;;5017522;28;19905;-76
2021/12/12 13:48:57;;;;;;;;;;;102.40;2227.20;;;;;;5018408;28;19992;-75
2021/12/12 13:51:29;;;;;;;;;;;102.40;2227.20;;;;;;5020340;28;19921;-76
2021/12/12 13:54:00;;;;;;;;;;;77.70;2227.20;;;;;;5003832;28;19912;-74
2021/12/12 13:56:36;;;;;;;;;;;102.40;2227.20;;;;;;5003886;28;20338;-75
2021/12/12 13:59:07;;;;;;;;;;;102.40;2227.20;;;;;;5034087;28;20419;-76
2021/12/12 14:01:49;;;;;;;;;;;102.50;2227.20;;;;;;5073056;28;20278;-74
2021/12/12 14:04:19;;;;;;;;;;;102.50;2227.20;;;;;;5071510;28;19934;-76
2021/12/12 14:06:46;;;;;;;;;;;102.40;2227.20;;;;;;5073407;28;19908;-75
2021/12/12 14:09:13;;;;;;;;;;;102.40;2227.20;;;;;;5072103;28;20349;-76
2021/12/12 14:11:42;;;;;;;;;;;102.50;2227.20;;;;;;5073049;28;19916;-78
2021/12/12 14:14:16;;;;;;;;;;;77.60;2227.20;;;;;;5073192;28;19911;-78
2021/12/12 14:16:45;;;;;;;;;;;77.60;2227.20;;;;;;5071448;28;19919;-74
2021/12/12 14:19:21;;;;;;;;;;;77.70;2227.20;;;;;;5070443;28;19999;-75
2021/12/12 14:21:47;;;;;;;;;;;102.50;2227.20;;;;;;5070904;28;20358;-78
2021/12/12 14:24:13;;;;;;;;;;;77.50;2227.20;;;;;;5073198;28;20034;-78
2021/12/12 14:26:43;;;;;;;;;;;77.50;2227.20;;;;;;5072841;28;19999;-74